Terminal Aerodrome Forecast
Issued by NWS Dallas/Fort Worth, TX

Home | Current Version | Previous Version | Text Only | Print | Product List | Glossary On
Versions: 1 2 3 4 5 6 7 8 9 10 11 12 13 14 15 16 17 18 19 20 21 22 23 24 25 26 27 28
452
FTUS44 KFWD 271721
TAFDFW
TAF
KDFW 271721Z 2718/2824 14008KT P6SM VCSH SCT035 BKN070
     FM272200 15008KT P6SM BKN050 BKN300
     FM281100 18008KT P6SM SCT015
      TEMPO 2812/2815 BKN015
     FM281600 18012KT P6SM SCT035 BKN300=

USA.gov is the U.S. government's official web portal to all federal, state and local government web resources and services.